sensor_id;sensor_type;location;lat;lon;timestamp;P1;P2;P0
47810;PMS5003;33575;52.600;7.318;2023-10-19T00:01:10;34;29;
47810;PMS5003;33575;52.600;7.318;2023-10-19T00:03:41;36;32;
47810;PMS5003;33575;52.600;7.318;2023-10-19T00:06:11;30;28;
47810;PMS5003;33575;52.600;7.318;2023-10-19T00:08:41;41;34;
47810;PMS5003;33575;52.600;7.318;2023-10-19T00:11:12;33;27;
47810;PMS5003;33575;52.600;7.318;2023-10-19T00:13:42;36;29;
47810;PMS5003;33575;52.600;7.318;2023-10-19T00:16:13;30;29;
47810;PMS5003;33575;52.600;7.318;2023-10-19T00:18:44;43;33;
47810;PMS5003;33575;52.600;7.318;2023-10-19T00:21:14;41;33;
47810;PMS5003;33575;52.600;7.318;2023-10-19T00:23:44;31;29;
47810;PMS5003;33575;52.600;7.318;2023-10-19T00:26:15;40;29;
47810;PMS5003;33575;52.600;7.318;2023-10-19T00:28:45;32;27;
47810;PMS5003;33575;52.600;7.318;2023-10-19T00:31:15;39;31;
47810;PMS5003;33575;52.600;7.318;2023-10-19T00:33:45;31;28;
47810;PMS5003;33575;52.600;7.318;2023-10-19T00:36:16;39;33;
47810;PMS5003;33575;52.600;7.318;2023-10-19T00:38:46;37;29;
47810;PMS5003;33575;52.600;7.318;2023-10-19T00:41:17;33;28;
47810;PMS5003;33575;52.600;7.318;2023-10-19T00:43:47;41;31;
47810;PMS5003;33575;52.600;7.318;2023-10-19T00:46:18;41;34;
47810;PMS5003;33575;52.600;7.318;2023-10-19T00:48:48;33;32;
47810;PMS5003;33575;52.600;7.318;2023-10-19T00:51:19;34;33;
47810;PMS5003;33575;52.600;7.318;2023-10-19T00:53:48;32;30;
47810;PMS5003;33575;52.600;7.318;2023-10-19T00:56:19;39;31;
47810;PMS5003;33575;52.600;7.318;2023-10-19T00:58:49;33;31;
47810;PMS5003;33575;52.600;7.318;2023-10-19T01:01:20;37;29;
47810;PMS5003;33575;52.600;7.318;2023-10-19T01:03:50;31;27;
47810;PMS5003;33575;52.600;7.318;2023-10-19T01:06:20;30;27;
47810;PMS5003;33575;52.600;7.318;2023-10-19T01:08:51;31;28;
47810;PMS5003;33575;52.600;7.318;2023-10-19T01:11:21;35;30;
47810;PMS5003;33575;52.600;7.318;2023-10-19T01:13:52;32;29;
47810;PMS5003;33575;52.600;7.318;2023-10-19T01:16:23;32;29;
47810;PMS5003;33575;52.600;7.318;2023-10-19T01:18:53;31;29;
47810;PMS5003;33575;52.600;7.318;2023-10-19T01:21:23;34;31;
47810;PMS5003;33575;52.600;7.318;2023-10-19T01:23:53;29;28;
47810;PMS5003;33575;52.600;7.318;2023-10-19T01:26:24;35;29;
47810;PMS5003;33575;52.600;7.318;2023-10-19T01:28:54;34;31;
47810;PMS5003;33575;52.600;7.318;2023-10-19T01:31:25;30;28;
47810;PMS5003;33575;52.600;7.318;2023-10-19T01:33:54;30;29;
47810;PMS5003;33575;52.600;7.318;2023-10-19T01:36:25;31;30;
47810;PMS5003;33575;52.600;7.318;2023-10-19T01:38:55;38;32;
47810;PMS5003;33575;52.600;7.318;2023-10-19T01:41:25;35;29;
47810;PMS5003;33575;52.600;7.318;2023-10-19T01:43:56;37;30;
47810;PMS5003;33575;52.600;7.318;2023-10-19T01:46:26;31;31;
47810;PMS5003;33575;52.600;7.318;2023-10-19T01:48:56;38;31;
47810;PMS5003;33575;52.600;7.318;2023-10-19T01:51:26;34;28;
47810;PMS5003;33575;52.600;7.318;2023-10-19T01:53:56;34;30;
47810;PMS5003;33575;52.600;7.318;2023-10-19T01:56:26;29;28;
47810;PMS5003;33575;52.600;7.318;2023-10-19T01:58:57;29;28;
47810;PMS5003;33575;52.600;7.318;2023-10-19T02:01:27;32;31;
47810;PMS5003;33575;52.600;7.318;2023-10-19T02:03:58;34;30;
47810;PMS5003;33575;52.600;7.318;2023-10-19T02:06:29;34;33;
47810;PMS5003;33575;52.600;7.318;2023-10-19T02:08:58;33;32;
47810;PMS5003;33575;52.600;7.318;2023-10-19T02:11:28;39;32;
47810;PMS5003;33575;52.600;7.318;2023-10-19T02:13:57;36;31;
47810;PMS5003;33575;52.600;7.318;2023-10-19T02:16:28;37;32;
47810;PMS5003;33575;52.600;7.318;2023-10-19T02:18:59;31;28;
47810;PMS5003;33575;52.600;7.318;2023-10-19T02:21:29;30;29;
47810;PMS5003;33575;52.600;7.318;2023-10-19T02:24:00;30;29;
47810;PMS5003;33575;52.600;7.318;2023-10-19T02:26:30;30;28;
47810;PMS5003;33575;52.600;7.318;2023-10-19T02:29:01;44;34;
47810;PMS5003;33575;52.600;7.318;2023-10-19T02:31:31;33;28;
47810;PMS5003;33575;52.600;7.318;2023-10-19T02:34:01;40;31;
47810;PMS5003;33575;52.600;7.318;2023-10-19T02:36:32;32;27;
47810;PMS5003;33575;52.600;7.318;2023-10-19T02:39:04;35;30;
47810;PMS5003;33575;52.600;7.318;2023-10-19T02:41:33;31;26;
47810;PMS5003;33575;52.600;7.318;2023-10-19T02:44:04;30;27;
47810;PMS5003;33575;52.600;7.318;2023-10-19T02:46:34;24;24;
47810;PMS5003;33575;52.600;7.318;2023-10-19T02:49:05;32;25;
47810;PMS5003;33575;52.600;7.318;2023-10-19T02:51:35;38;31;
47810;PMS5003;33575;52.600;7.318;2023-10-19T02:54:06;34;28;
47810;PMS5003;33575;52.600;7.318;2023-10-19T02:56:36;26;24;
47810;PMS5003;33575;52.600;7.318;2023-10-19T02:59:06;25;24;
47810;PMS5003;33575;52.600;7.318;2023-10-19T03:01:37;30;22;
47810;PMS5003;33575;52.600;7.318;2023-10-19T03:04:07;23;21;
47810;PMS5003;33575;52.600;7.318;2023-10-19T03:06:38;25;23;
47810;PMS5003;33575;52.600;7.318;2023-10-19T03:09:08;23;22;
47810;PMS5003;33575;52.600;7.318;2023-10-19T03:11:38;31;25;
47810;PMS5003;33575;52.600;7.318;2023-10-19T03:14:09;25;23;
47810;PMS5003;33575;52.600;7.318;2023-10-19T03:16:40;29;25;
47810;PMS5003;33575;52.600;7.318;2023-10-19T03:19:10;23;22;
47810;PMS5003;33575;52.600;7.318;2023-10-19T03:21:40;27;22;
47810;PMS5003;33575;52.600;7.318;2023-10-19T03:24:11;22;21;
47810;PMS5003;33575;52.600;7.318;2023-10-19T03:26:41;20;20;
47810;PMS5003;33575;52.600;7.318;2023-10-19T03:29:12;27;22;
47810;PMS5003;33575;52.600;7.318;2023-10-19T03:31:43;23;23;
47810;PMS5003;33575;52.600;7.318;2023-10-19T03:34:13;29;25;
47810;PMS5003;33575;52.600;7.318;2023-10-19T03:36:44;23;20;
47810;PMS5003;33575;52.600;7.318;2023-10-19T03:39:14;31;23;
47810;PMS5003;33575;52.600;7.318;2023-10-19T03:41:45;20;18;
47810;PMS5003;33575;52.600;7.318;2023-10-19T03:44:16;33;23;
47810;PMS5003;33575;52.600;7.318;2023-10-19T03:46:46;26;25;
47810;PMS5003;33575;52.600;7.318;2023-10-19T03:49:16;23;21;
47810;PMS5003;33575;52.600;7.318;2023-10-19T03:51:46;24;24;
47810;PMS5003;33575;52.600;7.318;2023-10-19T03:54:17;20;18;
47810;PMS5003;33575;52.600;7.318;2023-10-19T03:56:48;21;21;
47810;PMS5003;33575;52.600;7.318;2023-10-19T03:59:18;24;22;
47810;PMS5003;33575;52.600;7.318;2023-10-19T04:01:48;22;20;
47810;PMS5003;33575;52.600;7.318;2023-10-19T04:04:19;23;20;
47810;PMS5003;33575;52.600;7.318;2023-10-19T04:06:49;23;22;
47810;PMS5003;33575;52.600;7.318;2023-10-19T04:09:20;20;20;
47810;PMS5003;33575;52.600;7.318;2023-10-19T04:11:51;20;20;
47810;PMS5003;33575;52.600;7.318;2023-10-19T04:14:21;22;20;
47810;PMS5003;33575;52.600;7.318;2023-10-19T04:16:52;22;21;
47810;PMS5003;33575;52.600;7.318;2023-10-19T04:19:22;22;20;
47810;PMS5003;33575;52.600;7.318;2023-10-19T04:21:52;25;23;
47810;PMS5003;33575;52.600;7.318;2023-10-19T04:24:23;24;22;
47810;PMS5003;33575;52.600;7.318;2023-10-19T04:26:53;20;20;
47810;PMS5003;33575;52.600;7.318;2023-10-19T04:29:28;28;20;
47810;PMS5003;33575;52.600;7.318;2023-10-19T04:31:55;28;21;
47810;PMS5003;33575;52.600;7.318;2023-10-19T04:34:26;19;19;
47810;PMS5003;33575;52.600;7.318;2023-10-19T04:36:56;18;17;
47810;PMS5003;33575;52.600;7.318;2023-10-19T04:39:27;24;19;
47810;PMS5003;33575;52.600;7.318;2023-10-19T04:41:58;22;20;
47810;PMS5003;33575;52.600;7.318;2023-10-19T04:44:28;24;22;
47810;PMS5003;33575;52.600;7.318;2023-10-19T04:46:58;22;21;
47810;PMS5003;33575;52.600;7.318;2023-10-19T04:49:29;23;22;
47810;PMS5003;33575;52.600;7.318;2023-10-19T04:51:59;22;20;
47810;PMS5003;33575;52.600;7.318;2023-10-19T04:54:30;24;19;
47810;PMS5003;33575;52.600;7.318;2023-10-19T04:57:00;18;17;
47810;PMS5003;33575;52.600;7.318;2023-10-19T04:59:30;23;22;
47810;PMS5003;33575;52.600;7.318;2023-10-19T05:02:01;22;21;
47810;PMS5003;33575;52.600;7.318;2023-10-19T05:04:32;23;23;
47810;PMS5003;33575;52.600;7.318;2023-10-19T05:07:02;19;19;
47810;PMS5003;33575;52.600;7.318;2023-10-19T05:09:33;28;22;
47810;PMS5003;33575;52.600;7.318;2023-10-19T05:12:03;17;17;
47810;PMS5003;33575;52.600;7.318;2023-10-19T05:14:34;19;18;
47810;PMS5003;33575;52.600;7.318;2023-10-19T05:17:05;19;19;
47810;PMS5003;33575;52.600;7.318;2023-10-19T05:19:39;20;20;
47810;PMS5003;33575;52.600;7.318;2023-10-19T05:22:05;17;17;
47810;PMS5003;33575;52.600;7.318;2023-10-19T05:24:35;18;16;
47810;PMS5003;33575;52.600;7.318;2023-10-19T05:27:05;18;17;
47810;PMS5003;33575;52.600;7.318;2023-10-19T05:29:36;23;18;
47810;PMS5003;33575;52.600;7.318;2023-10-19T05:32:07;16;15;
47810;PMS5003;33575;52.600;7.318;2023-10-19T05:34:38;14;14;
47810;PMS5003;33575;52.600;7.318;2023-10-19T05:37:08;13;13;
47810;PMS5003;33575;52.600;7.318;2023-10-19T05:39:39;14;14;
47810;PMS5003;33575;52.600;7.318;2023-10-19T05:42:09;16;16;
47810;PMS5003;33575;52.600;7.318;2023-10-19T05:44:40;17;17;
47810;PMS5003;33575;52.600;7.318;2023-10-19T05:47:10;16;15;
47810;PMS5003;33575;52.600;7.318;2023-10-19T05:49:41;16;16;
47810;PMS5003;33575;52.600;7.318;2023-10-19T05:52:11;16;15;
47810;PMS5003;33575;52.600;7.318;2023-10-19T05:54:42;15;15;
47810;PMS5003;33575;52.600;7.318;2023-10-19T05:57:12;16;16;
47810;PMS5003;33575;52.600;7.318;2023-10-19T05:59:43;16;16;
47810;PMS5003;33575;52.600;7.318;2023-10-19T06:02:13;14;14;
47810;PMS5003;33575;52.600;7.318;2023-10-19T06:04:43;16;15;
47810;PMS5003;33575;52.600;7.318;2023-10-19T06:07:13;21;15;
47810;PMS5003;33575;52.600;7.318;2023-10-19T06:09:44;16;15;
47810;PMS5003;33575;52.600;7.318;2023-10-19T06:12:14;17;17;
47810;PMS5003;33575;52.600;7.318;2023-10-19T06:14:44;18;17;
47810;PMS5003;33575;52.600;7.318;2023-10-19T06:17:15;17;16;
47810;PMS5003;33575;52.600;7.318;2023-10-19T06:19:45;16;16;
47810;PMS5003;33575;52.600;7.318;2023-10-19T06:22:15;16;15;
47810;PMS5003;33575;52.600;7.318;2023-10-19T06:24:46;24;19;
47810;PMS5003;33575;52.600;7.318;2023-10-19T06:27:17;18;18;
47810;PMS5003;33575;52.600;7.318;2023-10-19T06:29:48;19;18;
47810;PMS5003;33575;52.600;7.318;2023-10-19T06:32:18;18;16;
47810;PMS5003;33575;52.600;7.318;2023-10-19T06:34:48;16;16;
47810;PMS5003;33575;52.600;7.318;2023-10-19T06:37:18;17;17;
47810;PMS5003;33575;52.600;7.318;2023-10-19T06:39:49;21;17;
47810;PMS5003;33575;52.600;7.318;2023-10-19T06:42:20;19;18;
47810;PMS5003;33575;52.600;7.318;2023-10-19T06:44:50;19;18;
47810;PMS5003;33575;52.600;7.318;2023-10-19T06:47:21;23;20;
47810;PMS5003;33575;52.600;7.318;2023-10-19T06:49:51;17;17;
47810;PMS5003;33575;52.600;7.318;2023-10-19T06:52:22;18;16;
47810;PMS5003;33575;52.600;7.318;2023-10-19T06:54:52;18;14;
47810;PMS5003;33575;52.600;7.318;2023-10-19T06:57:22;18;18;
47810;PMS5003;33575;52.600;7.318;2023-10-19T06:59:53;14;14;
47810;PMS5003;33575;52.600;7.318;2023-10-19T07:02:23;21;21;
47810;PMS5003;33575;52.600;7.318;2023-10-19T07:04:54;17;15;
47810;PMS5003;33575;52.600;7.318;2023-10-19T07:07:24;18;18;
47810;PMS5003;33575;52.600;7.318;2023-10-19T07:09:54;29;23;
47810;PMS5003;33575;52.600;7.318;2023-10-19T07:12:25;16;16;
47810;PMS5003;33575;52.600;7.318;2023-10-19T07:14:56;23;21;
47810;PMS5003;33575;52.600;7.318;2023-10-19T07:17:26;15;15;
47810;PMS5003;33575;52.600;7.318;2023-10-19T07:19:57;16;16;
47810;PMS5003;33575;52.600;7.318;2023-10-19T07:22:27;20;19;
47810;PMS5003;33575;52.600;7.318;2023-10-19T07:24:58;17;17;
47810;PMS5003;33575;52.600;7.318;2023-10-19T07:27:33;20;19;
47810;PMS5003;33575;52.600;7.318;2023-10-19T07:29:59;20;19;
47810;PMS5003;33575;52.600;7.318;2023-10-19T07:32:29;18;16;
47810;PMS5003;33575;52.600;7.318;2023-10-19T07:35:00;17;17;
47810;PMS5003;33575;52.600;7.318;2023-10-19T07:37:31;23;17;
47810;PMS5003;33575;52.600;7.318;2023-10-19T07:40:01;17;17;
47810;PMS5003;33575;52.600;7.318;2023-10-19T07:42:32;22;18;
47810;PMS5003;33575;52.600;7.318;2023-10-19T07:45:03;18;17;
47810;PMS5003;33575;52.600;7.318;2023-10-19T07:47:33;21;21;
47810;PMS5003;33575;52.600;7.318;2023-10-19T07:50:03;16;16;
47810;PMS5003;33575;52.600;7.318;2023-10-19T07:52:33;18;16;
47810;PMS5003;33575;52.600;7.318;2023-10-19T07:55:04;15;15;
47810;PMS5003;33575;52.600;7.318;2023-10-19T07:57:34;16;16;
47810;PMS5003;33575;52.600;7.318;2023-10-19T08:00:07;14;13;
47810;PMS5003;33575;52.600;7.318;2023-10-19T08:02:35;20;17;
47810;PMS5003;33575;52.600;7.318;2023-10-19T08:05:06;17;17;
47810;PMS5003;33575;52.600;7.318;2023-10-19T08:07:36;22;16;
47810;PMS5003;33575;52.600;7.318;2023-10-19T08:10:08;21;17;
47810;PMS5003;33575;52.600;7.318;2023-10-19T08:12:36;24;22;
47810;PMS5003;33575;52.600;7.318;2023-10-19T08:15:07;18;17;
47810;PMS5003;33575;52.600;7.318;2023-10-19T08:17:37;18;17;
47810;PMS5003;33575;52.600;7.318;2023-10-19T08:20:09;16;16;
47810;PMS5003;33575;52.600;7.318;2023-10-19T08:22:38;19;18;
47810;PMS5003;33575;52.600;7.318;2023-10-19T08:25:09;19;19;
47810;PMS5003;33575;52.600;7.318;2023-10-19T08:27:39;15;15;
47810;PMS5003;33575;52.600;7.318;2023-10-19T08:30:09;19;17;
47810;PMS5003;33575;52.600;7.318;2023-10-19T08:32:40;15;15;
47810;PMS5003;33575;52.600;7.318;2023-10-19T08:35:11;23;18;
47810;PMS5003;33575;52.600;7.318;2023-10-19T08:37:41;17;16;
47810;PMS5003;33575;52.600;7.318;2023-10-19T08:40:11;16;16;
47810;PMS5003;33575;52.600;7.318;2023-10-19T08:42:42;21;17;
47810;PMS5003;33575;52.600;7.318;2023-10-19T08:45:12;18;17;
47810;PMS5003;33575;52.600;7.318;2023-10-19T08:47:43;18;17;
47810;PMS5003;33575;52.600;7.318;2023-10-19T08:50:14;32;26;
47810;PMS5003;33575;52.600;7.318;2023-10-19T08:52:44;20;19;
47810;PMS5003;33575;52.600;7.318;2023-10-19T08:55:14;17;16;
47810;PMS5003;33575;52.600;7.318;2023-10-19T08:57:44;19;19;
47810;PMS5003;33575;52.600;7.318;2023-10-19T09:00:15;20;17;
47810;PMS5003;33575;52.600;7.318;2023-10-19T09:02:45;18;18;
47810;PMS5003;33575;52.600;7.318;2023-10-19T09:05:15;17;16;
47810;PMS5003;33575;52.600;7.318;2023-10-19T09:07:46;17;17;
47810;PMS5003;33575;52.600;7.318;2023-10-19T09:10:16;20;17;
47810;PMS5003;33575;52.600;7.318;2023-10-19T09:12:48;17;17;
47810;PMS5003;33575;52.600;7.318;2023-10-19T09:15:21;33;26;
47810;PMS5003;33575;52.600;7.318;2023-10-19T09:17:47;20;19;
47810;PMS5003;33575;52.600;7.318;2023-10-19T09:20:17;18;18;
47810;PMS5003;33575;52.600;7.318;2023-10-19T09:22:48;16;16;
47810;PMS5003;33575;52.600;7.318;2023-10-19T09:25:18;21;19;
47810;PMS5003;33575;52.600;7.318;2023-10-19T09:27:49;22;21;
47810;PMS5003;33575;52.600;7.318;2023-10-19T09:30:19;20;19;
47810;PMS5003;33575;52.600;7.318;2023-10-19T09:32:49;21;19;
47810;PMS5003;33575;52.600;7.318;2023-10-19T09:35:20;34;31;
47810;PMS5003;33575;52.600;7.318;2023-10-19T09:37:50;27;25;
47810;PMS5003;33575;52.600;7.318;2023-10-19T09:40:21;26;26;
47810;PMS5003;33575;52.600;7.318;2023-10-19T09:42:53;28;26;
47810;PMS5003;33575;52.600;7.318;2023-10-19T09:45:22;31;23;
47810;PMS5003;33575;52.600;7.318;2023-10-19T09:47:53;29;29;
47810;PMS5003;33575;52.600;7.318;2023-10-19T09:50:23;40;39;
47810;PMS5003;33575;52.600;7.318;2023-10-19T09:52:53;38;38;
47810;PMS5003;33575;52.600;7.318;2023-10-19T09:55:29;36;35;
47810;PMS5003;33575;52.600;7.318;2023-10-19T09:57:55;33;32;
47810;PMS5003;33575;52.600;7.318;2023-10-19T10:00:24;24;23;
47810;PMS5003;33575;52.600;7.318;2023-10-19T10:02:55;28;26;
47810;PMS5003;33575;52.600;7.318;2023-10-19T10:10:25;23;21;
47810;PMS5003;33575;52.600;7.318;2023-10-19T10:13:00;21;17;
47810;PMS5003;33575;52.600;7.318;2023-10-19T10:17:58;19;18;
47810;PMS5003;33575;52.600;7.318;2023-10-19T10:20:29;20;18;
47810;PMS5003;33575;52.600;7.318;2023-10-19T10:25:29;25;20;
47810;PMS5003;33575;52.600;7.318;2023-10-19T10:27:59;21;17;
47810;PMS5003;33575;52.600;7.318;2023-10-19T10:30:29;18;17;
47810;PMS5003;33575;52.600;7.318;2023-10-19T10:32:59;18;16;
47810;PMS5003;33575;52.600;7.318;2023-10-19T10:38:00;19;18;
47810;PMS5003;33575;52.600;7.318;2023-10-19T10:40:30;20;18;
47810;PMS5003;33575;52.600;7.318;2023-10-19T10:45:30;20;20;
47810;PMS5003;33575;52.600;7.318;2023-10-19T10:48:01;21;20;
47810;PMS5003;33575;52.600;7.318;2023-10-19T10:50:31;22;20;
47810;PMS5003;33575;52.600;7.318;2023-10-19T10:53:02;25;19;
47810;PMS5003;33575;52.600;7.318;2023-10-19T10:55:32;17;17;
47810;PMS5003;33575;52.600;7.318;2023-10-19T10:58:03;19;19;
47810;PMS5003;33575;52.600;7.318;2023-10-19T11:00:33;29;23;
47810;PMS5003;33575;52.600;7.318;2023-10-19T11:03:05;22;22;
47810;PMS5003;33575;52.600;7.318;2023-10-19T11:05:35;20;19;
47810;PMS5003;33575;52.600;7.318;2023-10-19T11:08:06;20;20;
47810;PMS5003;33575;52.600;7.318;2023-10-19T11:10:35;20;19;
47810;PMS5003;33575;52.600;7.318;2023-10-19T11:13:06;22;22;
47810;PMS5003;33575;52.600;7.318;2023-10-19T11:15:37;20;19;
47810;PMS5003;33575;52.600;7.318;2023-10-19T11:18:07;29;23;
47810;PMS5003;33575;52.600;7.318;2023-10-19T11:20:37;23;21;
47810;PMS5003;33575;52.600;7.318;2023-10-19T11:23:08;22;21;
47810;PMS5003;33575;52.600;7.318;2023-10-19T11:25:39;24;23;
47810;PMS5003;33575;52.600;7.318;2023-10-19T11:30:39;30;25;
47810;PMS5003;33575;52.600;7.318;2023-10-19T11:33:11;23;20;
47810;PMS5003;33575;52.600;7.318;2023-10-19T11:35:40;23;22;
47810;PMS5003;33575;52.600;7.318;2023-10-19T11:38:10;25;25;
47810;PMS5003;33575;52.600;7.318;2023-10-19T11:40:40;29;25;
47810;PMS5003;33575;52.600;7.318;2023-10-19T11:43:11;37;29;
47810;PMS5003;33575;52.600;7.318;2023-10-19T11:45:41;30;24;
47810;PMS5003;33575;52.600;7.318;2023-10-19T11:48:12;25;23;
47810;PMS5003;33575;52.600;7.318;2023-10-19T11:50:42;27;25;
47810;PMS5003;33575;52.600;7.318;2023-10-19T11:53:12;28;25;
47810;PMS5003;33575;52.600;7.318;2023-10-19T11:55:43;26;25;
47810;PMS5003;33575;52.600;7.318;2023-10-19T11:58:13;29;28;
47810;PMS5003;33575;52.600;7.318;2023-10-19T12:00:43;29;28;
47810;PMS5003;33575;52.600;7.318;2023-10-19T12:03:13;37;29;
47810;PMS5003;33575;52.600;7.318;2023-10-19T12:05:43;27;24;
47810;PMS5003;33575;52.600;7.318;2023-10-19T12:08:14;26;24;
47810;PMS5003;33575;52.600;7.318;2023-10-19T12:10:45;28;25;
47810;PMS5003;33575;52.600;7.318;2023-10-19T12:13:15;29;26;
47810;PMS5003;33575;52.600;7.318;2023-10-19T12:15:45;35;28;
47810;PMS5003;33575;52.600;7.318;2023-10-19T12:18:15;26;25;
47810;PMS5003;33575;52.600;7.318;2023-10-19T12:20:45;29;28;
47810;PMS5003;33575;52.600;7.318;2023-10-19T12:23:16;34;27;
47810;PMS5003;33575;52.600;7.318;2023-10-19T12:25:51;24;23;
47810;PMS5003;33575;52.600;7.318;2023-10-19T12:28:16;27;26;
47810;PMS5003;33575;52.600;7.318;2023-10-19T12:30:47;30;30;
47810;PMS5003;33575;52.600;7.318;2023-10-19T12:33:17;25;25;
47810;PMS5003;33575;52.600;7.318;2023-10-19T12:35:48;24;24;
47810;PMS5003;33575;52.600;7.318;2023-10-19T12:38:19;29;27;
47810;PMS5003;33575;52.600;7.318;2023-10-19T12:40:50;32;26;
47810;PMS5003;33575;52.600;7.318;2023-10-19T12:43:20;24;22;
47810;PMS5003;33575;52.600;7.318;2023-10-19T12:45:50;26;26;
47810;PMS5003;33575;52.600;7.318;2023-10-19T12:48:21;26;24;
47810;PMS5003;33575;52.600;7.318;2023-10-19T12:50:52;38;29;
47810;PMS5003;33575;52.600;7.318;2023-10-19T12:53:22;25;24;
47810;PMS5003;33575;52.600;7.318;2023-10-19T12:55:53;30;25;
47810;PMS5003;33575;52.600;7.318;2023-10-19T12:58:24;33;25;
47810;PMS5003;33575;52.600;7.318;2023-10-19T13:00:54;26;22;
47810;PMS5003;33575;52.600;7.318;2023-10-19T13:03:25;25;25;
47810;PMS5003;33575;52.600;7.318;2023-10-19T13:05:55;32;29;
47810;PMS5003;33575;52.600;7.318;2023-10-19T13:08:25;25;24;
47810;PMS5003;33575;52.600;7.318;2023-10-19T13:11:00;27;24;
47810;PMS5003;33575;52.600;7.318;2023-10-19T13:13:25;30;27;
47810;PMS5003;33575;52.600;7.318;2023-10-19T13:15:56;25;24;
47810;PMS5003;33575;52.600;7.318;2023-10-19T13:18:27;30;25;
47810;PMS5003;33575;52.600;7.318;2023-10-19T13:20:57;33;26;
47810;PMS5003;33575;52.600;7.318;2023-10-19T13:23:27;24;22;
47810;PMS5003;33575;52.600;7.318;2023-10-19T13:25:58;25;24;
47810;PMS5003;33575;52.600;7.318;2023-10-19T13:28:28;25;23;
47810;PMS5003;33575;52.600;7.318;2023-10-19T13:30:58;36;27;
47810;PMS5003;33575;52.600;7.318;2023-10-19T13:33:29;33;27;
47810;PMS5003;33575;52.600;7.318;2023-10-19T13:35:59;29;27;
47810;PMS5003;33575;52.600;7.318;2023-10-19T13:38:30;36;26;
47810;PMS5003;33575;52.600;7.318;2023-10-19T13:41:02;28;26;
47810;PMS5003;33575;52.600;7.318;2023-10-19T13:43:34;24;24;
47810;PMS5003;33575;52.600;7.318;2023-10-19T13:46:01;34;27;
47810;PMS5003;33575;52.600;7.318;2023-10-19T13:48:31;26;25;
47810;PMS5003;33575;52.600;7.318;2023-10-19T13:51:02;32;29;
47810;PMS5003;33575;52.600;7.318;2023-10-19T13:53:32;30;26;
47810;PMS5003;33575;52.600;7.318;2023-10-19T13:56:06;29;27;
47810;PMS5003;33575;52.600;7.318;2023-10-19T13:58:33;38;26;
47810;PMS5003;33575;52.600;7.318;2023-10-19T14:01:06;26;26;
47810;PMS5003;33575;52.600;7.318;2023-10-19T14:03:34;24;24;
47810;PMS5003;33575;52.600;7.318;2023-10-19T14:06:04;28;26;
47810;PMS5003;33575;52.600;7.318;2023-10-19T14:08:35;30;26;
47810;PMS5003;33575;52.600;7.318;2023-10-19T14:11:05;25;24;
47810;PMS5003;33575;52.600;7.318;2023-10-19T14:13:36;31;26;
47810;PMS5003;33575;52.600;7.318;2023-10-19T14:16:06;27;26;
47810;PMS5003;33575;52.600;7.318;2023-10-19T14:18:36;31;29;
47810;PMS5003;33575;52.600;7.318;2023-10-19T14:21:10;28;27;
47810;PMS5003;33575;52.600;7.318;2023-10-19T14:23:37;27;26;
47810;PMS5003;33575;52.600;7.318;2023-10-19T14:26:08;29;28;
47810;PMS5003;33575;52.600;7.318;2023-10-19T14:28:38;30;25;
47810;PMS5003;33575;52.600;7.318;2023-10-19T14:31:08;27;26;
47810;PMS5003;33575;52.600;7.318;2023-10-19T14:33:39;25;25;
47810;PMS5003;33575;52.600;7.318;2023-10-19T14:36:09;35;28;
47810;PMS5003;33575;52.600;7.318;2023-10-19T14:38:39;35;26;
47810;PMS5003;33575;52.600;7.318;2023-10-19T14:41:10;32;28;
47810;PMS5003;33575;52.600;7.318;2023-10-19T14:43:41;33;29;
47810;PMS5003;33575;52.600;7.318;2023-10-19T14:46:11;38;31;
47810;PMS5003;33575;52.600;7.318;2023-10-19T14:48:42;35;30;
47810;PMS5003;33575;52.600;7.318;2023-10-19T14:51:12;30;28;
47810;PMS5003;33575;52.600;7.318;2023-10-19T14:53:43;35;31;
47810;PMS5003;33575;52.600;7.318;2023-10-19T14:56:13;33;28;
47810;PMS5003;33575;52.600;7.318;2023-10-19T14:58:43;35;33;
47810;PMS5003;33575;52.600;7.318;2023-10-19T15:03:44;31;28;
47810;PMS5003;33575;52.600;7.318;2023-10-19T15:06:14;33;31;
47810;PMS5003;33575;52.600;7.318;2023-10-19T15:08:45;32;31;
47810;PMS5003;33575;52.600;7.318;2023-10-19T15:11:16;31;30;
47810;PMS5003;33575;52.600;7.318;2023-10-19T15:13:45;29;28;
47810;PMS5003;33575;52.600;7.318;2023-10-19T15:16:16;30;30;
47810;PMS5003;33575;52.600;7.318;2023-10-19T15:18:46;29;28;
47810;PMS5003;33575;52.600;7.318;2023-10-19T15:21:17;34;29;
47810;PMS5003;33575;52.600;7.318;2023-10-19T15:23:47;32;28;
47810;PMS5003;33575;52.600;7.318;2023-10-19T15:26:18;36;28;
47810;PMS5003;33575;52.600;7.318;2023-10-19T15:28:48;36;29;
47810;PMS5003;33575;52.600;7.318;2023-10-19T15:31:18;31;27;
47810;PMS5003;33575;52.600;7.318;2023-10-19T15:33:48;34;30;
47810;PMS5003;33575;52.600;7.318;2023-10-19T15:36:19;36;32;
47810;PMS5003;33575;52.600;7.318;2023-10-19T15:38:50;33;32;
47810;PMS5003;33575;52.600;7.318;2023-10-19T15:41:20;36;29;
47810;PMS5003;33575;52.600;7.318;2023-10-19T15:43:51;31;27;
47810;PMS5003;33575;52.600;7.318;2023-10-19T15:46:22;33;30;
47810;PMS5003;33575;52.600;7.318;2023-10-19T15:48:52;45;32;
47810;PMS5003;33575;52.600;7.318;2023-10-19T15:51:24;29;29;
47810;PMS5003;33575;52.600;7.318;2023-10-19T15:53:53;34;33;
47810;PMS5003;33575;52.600;7.318;2023-10-19T15:56:24;43;31;
47810;PMS5003;33575;52.600;7.318;2023-10-19T15:58:55;36;33;
47810;PMS5003;33575;52.600;7.318;2023-10-19T16:01:25;41;29;
47810;PMS5003;33575;52.600;7.318;2023-10-19T16:03:56;35;33;
47810;PMS5003;33575;52.600;7.318;2023-10-19T16:06:26;34;32;
47810;PMS5003;33575;52.600;7.318;2023-10-19T16:08:57;43;33;
47810;PMS5003;33575;52.600;7.318;2023-10-19T16:11:28;39;31;
47810;PMS5003;33575;52.600;7.318;2023-10-19T16:13:58;42;35;
47810;PMS5003;33575;52.600;7.318;2023-10-19T16:16:28;32;32;
47810;PMS5003;33575;52.600;7.318;2023-10-19T16:18:59;41;32;
47810;PMS5003;33575;52.600;7.318;2023-10-19T16:21:29;39;32;
47810;PMS5003;33575;52.600;7.318;2023-10-19T16:24:00;39;32;
47810;PMS5003;33575;52.600;7.318;2023-10-19T16:26:30;42;36;
47810;PMS5003;33575;52.600;7.318;2023-10-19T16:29:01;52;46;
47810;PMS5003;33575;52.600;7.318;2023-10-19T16:31:31;34;30;
47810;PMS5003;33575;52.600;7.318;2023-10-19T16:34:01;42;34;
47810;PMS5003;33575;52.600;7.318;2023-10-19T16:36:32;45;39;
47810;PMS5003;33575;52.600;7.318;2023-10-19T16:39:02;46;37;
47810;PMS5003;33575;52.600;7.318;2023-10-19T16:41:32;55;53;
47810;PMS5003;33575;52.600;7.318;2023-10-19T16:44:03;46;40;
47810;PMS5003;33575;52.600;7.318;2023-10-19T16:46:34;44;37;
47810;PMS5003;33575;52.600;7.318;2023-10-19T16:49:04;46;39;
47810;PMS5003;33575;52.600;7.318;2023-10-19T16:51:35;45;34;
47810;PMS5003;33575;52.600;7.318;2023-10-19T16:54:06;45;34;
47810;PMS5003;33575;52.600;7.318;2023-10-19T16:56:35;45;36;
47810;PMS5003;33575;52.600;7.318;2023-10-19T16:59:06;43;38;